Time;durP1;ratioP1;P1;durP2;ratioP2;P2;SDS_P1;SDS_P2;PMS_P1;PMS_P2;Temp;Humidity;BMP_temperature;BMP_pressure;BME280_temperature;BME280_humidity;BME280_pressure;Samples;Min_cycle;Max_cycle;Signal;HPM_P1;HPM_P2
2022/12/11 00:01:35;;;;;;;36.17;12.73;;;-6.60;99.90;;;;;;5049420;28;20540;-73
2022/12/11 00:04:01;;;;;;;35.13;12.05;;;-6.60;99.90;;;;;;5059969;28;20017;-74
2022/12/11 00:06:27;;;;;;;31.80;14.27;;;-6.70;99.90;;;;;;5063298;28;20059;-74
2022/12/11 00:08:54;;;;;;;33.45;12.65;;;-6.80;99.90;;;;;;5074195;28;20089;-73
2022/12/11 00:11:21;;;;;;;35.97;10.85;;;-6.90;99.90;;;;;;5068298;28;20104;-74
2022/12/11 00:13:47;;;;;;;26.60;9.88;;;-7.00;99.90;;;;;;5069407;28;20024;-74
2022/12/11 00:16:13;;;;;;;29.58;11.95;;;-7.10;99.90;;;;;;5069072;28;20380;-74
2022/12/11 00:18:39;;;;;;;31.77;13.15;;;-7.10;99.90;;;;;;5067164;28;20513;-74
2022/12/11 00:21:08;;;;;;;32.50;10.40;;;-7.20;99.90;;;;;;5082666;28;20031;-74
2022/12/11 00:23:34;;;;;;;32.97;13.30;;;-7.20;99.90;;;;;;5066698;28;20501;-74
2022/12/11 00:26:03;;;;;;;32.78;11.80;;;-7.10;99.90;;;;;;5082789;28;20020;-73
2022/12/11 00:28:29;;;;;;;34.97;12.07;;;-6.90;99.90;;;;;;5066334;28;20195;-74
2022/12/11 00:30:54;;;;;;;34.80;13.05;;;-6.90;99.90;;;;;;5066037;28;20191;-72
2022/12/11 00:33:20;;;;;;;34.80;11.73;;;-6.80;99.90;;;;;;5067208;28;20061;-77
2022/12/11 00:35:46;;;;;;;27.45;11.75;;;-6.80;99.90;;;;;;5067843;28;20029;-76
2022/12/11 00:38:15;;;;;;;30.33;11.45;;;-6.90;99.90;;;;;;5067960;28;20113;-74
2022/12/11 00:40:41;;;;;;;28.90;12.17;;;-7.00;99.90;;;;;;5072420;28;20025;-73
2022/12/11 00:43:06;;;;;;;28.35;12.60;;;-7.00;99.90;;;;;;5071153;28;20270;-73
2022/12/11 00:45:40;;;;;;;30.80;11.18;;;-7.10;99.90;;;;;;5070267;28;20017;-74
2022/12/11 00:48:07;;;;;;;29.02;11.77;;;-7.00;99.90;;;;;;5069495;28;20039;-74
2022/12/11 00:50:33;;;;;;;39.40;12.77;;;-6.90;99.90;;;;;;5068792;28;20021;-73
2022/12/11 00:52:59;;;;;;;24.55;10.32;;;-7.00;99.90;;;;;;5068545;28;20243;-74
2022/12/11 00:55:27;;;;;;;23.27;10.63;;;-7.10;99.90;;;;;;5068506;28;20558;-73
2022/12/11 00:57:53;;;;;;;25.48;9.70;;;-7.30;99.90;;;;;;5067925;28;20038;-72
2022/12/11 01:00:19;;;;;;;27.90;11.98;;;-7.40;99.90;;;;;;5068353;28;20107;-73
2022/12/11 01:02:45;;;;;;;28.10;10.13;;;-7.40;99.90;;;;;;5068638;28;20107;-73
2022/12/11 01:05:10;;;;;;;26.65;11.38;;;-7.50;99.90;;;;;;5070175;28;20016;-75
2022/12/11 01:07:36;;;;;;;20.48;8.07;;;-7.60;99.90;;;;;;5069879;28;20025;-73
2022/12/11 01:12:47;;;;;;;20.30;9.18;;;-7.80;99.90;;;;;;5069488;28;20124;-73
2022/12/11 01:15:13;;;;;;;24.85;8.63;;;-7.90;99.90;;;;;;5069107;28;20104;-73
2022/12/11 01:17:39;;;;;;;28.58;9.45;;;-7.90;99.90;;;;;;5069926;28;20028;-73
2022/12/11 01:20:05;;;;;;;26.90;9.40;;;-7.90;99.90;;;;;;5069913;28;20078;-74
2022/12/11 01:22:31;;;;;;;25.17;10.13;;;-7.90;99.90;;;;;;5069695;28;20090;-73
2022/12/11 01:24:56;;;;;;;29.50;8.65;;;-7.90;99.90;;;;;;5070332;28;20021;-73
2022/12/11 01:27:22;;;;;;;24.45;8.57;;;-7.90;99.90;;;;;;5069721;28;20033;-73
2022/12/11 01:29:48;;;;;;;19.00;8.70;;;-8.00;99.90;;;;;;5068462;28;20028;-73
2022/12/11 01:32:14;;;;;;;27.60;12.27;;;-5.90;99.90;;;;;;5069662;28;20135;-73
2022/12/11 01:34:40;;;;;;;26.05;10.10;;;-7.90;99.90;;;;;;5070089;28;20047;-72
2022/12/11 01:37:05;;;;;;;23.77;7.75;;;-7.90;99.90;;;;;;5069745;28;20040;-73
2022/12/11 01:39:31;;;;;;;23.85;10.30;;;-8.00;99.90;;;;;;5069693;28;20119;-73
2022/12/11 01:41:58;;;;;;;21.70;9.32;;;-8.00;99.90;;;;;;5073884;28;20035;-73
2022/12/11 01:44:24;;;;;;;22.33;7.82;;;-8.10;99.90;;;;;;5073377;28;20032;-73
2022/12/11 01:46:49;;;;;;;24.75;7.68;;;-8.10;99.90;;;;;;5072158;28;20024;-73
2022/12/11 01:49:17;;;;;;;21.23;10.07;;;-8.10;99.90;;;;;;5073701;28;20104;-73
2022/12/11 01:51:56;;;;;;;20.35;7.93;;;-8.10;99.90;;;;;;5073381;28;20020;-74
2022/12/11 01:54:23;;;;;;;;;;;-8.20;99.90;;;;;;5072656;28;20021;-74
2022/12/11 01:56:51;;;;;;;29.35;8.45;;;-8.30;99.90;;;;;;5073480;28;20042;-73
2022/12/11 01:59:24;;;;;;;19.45;6.75;;;-8.30;99.90;;;;;;5071958;28;20024;-74
2022/12/11 02:01:56;;;;;;;22.17;8.75;;;-8.50;99.90;;;;;;5072252;28;20068;-73
2022/12/11 02:04:23;;;;;;;22.63;8.52;;;-8.50;99.90;;;;;;5074102;28;20032;-73
2022/12/11 02:06:51;;;;;;;20.75;8.98;;;-8.60;99.90;;;;;;5072164;28;20020;-73
2022/12/11 02:09:22;;;;;;;17.08;6.97;;;-8.80;99.90;;;;;;5073148;28;20115;-73
2022/12/11 02:12:20;;;;;;;30.52;9.27;;;-8.90;99.90;;;;;;5073155;28;20016;-73
2022/12/11 02:15:04;;;;;;;18.10;7.18;;;-9.00;99.90;;;;;;5072934;28;20020;-72
2022/12/11 02:18:17;;;;;;;17.83;6.03;;;-9.10;99.90;;;;;;5071589;28;20519;-73
2022/12/11 02:20:54;;;;;;;18.52;7.30;;;-9.10;99.90;;;;;;5030289;28;20029;-73
2022/12/11 02:23:32;;;;;;;18.95;7.15;;;-9.10;99.90;;;;;;5030087;28;20053;-73
2022/12/11 02:26:00;;;;;;;21.05;8.93;;;-9.10;99.90;;;;;;5058376;28;20123;-73
2022/12/11 02:28:41;;;;;;;24.83;8.38;;;-5.70;99.90;;;;;;5072603;28;20118;-73
2022/12/11 02:31:28;;;;;;;24.27;8.30;;;-9.00;99.90;;;;;;5071409;28;20086;-73
2022/12/11 02:34:11;;;;;;;22.95;6.72;;;-9.20;99.90;;;;;;5072558;28;20237;-73
2022/12/11 02:36:42;;;;;;;11.48;6.40;;;-9.40;99.90;;;;;;5072964;28;20044;-73
2022/12/11 02:39:11;;;;;;;15.30;6.75;;;-9.50;99.90;;;;;;5072544;28;20028;-74
2022/12/11 02:41:44;;;;;;;17.17;8.05;;;-9.60;99.90;;;;;;5072923;28;20365;-73
2022/12/11 02:44:12;;;;;;;19.98;8.75;;;-9.60;99.90;;;;;;5072187;28;20024;-73
2022/12/11 02:46:39;;;;;;;17.08;7.72;;;-9.60;99.90;;;;;;5072673;28;20032;-73
2022/12/11 02:49:07;;;;;;;23.25;7.18;;;-9.60;99.90;;;;;;5072504;28;20089;-73
2022/12/11 02:51:38;;;;;;;19.17;6.23;;;-9.70;99.90;;;;;;5071752;28;20427;-73
2022/12/11 02:54:07;;;;;;;19.13;7.05;;;-9.70;99.90;;;;;;5072302;28;20051;-73
2022/12/11 02:56:39;;;;;;;16.50;6.72;;;-9.80;99.90;;;;;;5070824;28;20032;-73
2022/12/11 02:59:14;;;;;;;24.92;6.75;;;-9.80;99.90;;;;;;5071825;28;20032;-74
2022/12/11 03:01:40;;;;;;;26.85;6.90;;;-9.80;99.90;;;;;;5071176;28;20058;-74
2022/12/11 03:04:06;;;;;;;23.08;6.57;;;-9.70;99.90;;;;;;5070945;28;20051;-73
2022/12/11 03:06:36;;;;;;;20.73;7.32;;;-9.70;99.90;;;;;;5072214;28;20473;-73
2022/12/11 03:09:03;;;;;;;28.63;8.05;;;-9.10;99.90;;;;;;5072007;28;20479;-73
2022/12/11 03:11:29;;;;;;;26.23;8.38;;;-9.10;99.90;;;;;;5070711;28;20271;-73
2022/12/11 03:13:55;;;;;;;23.02;7.28;;;-8.90;99.90;;;;;;5071772;28;20313;-73
2022/12/11 03:16:33;;;;;;;21.52;7.03;;;-8.70;99.90;;;;;;5070660;28;20499;-73
2022/12/11 03:19:20;;;;;;;24.63;9.25;;;-8.60;99.90;;;;;;5072130;28;20032;-74
2022/12/11 03:22:00;;;;;;;19.40;8.55;;;-8.40;99.90;;;;;;5071771;28;20052;-73
2022/12/11 03:24:29;;;;;;;24.52;9.00;;;-8.10;99.90;;;;;;5071784;28;20035;-73
2022/12/11 03:27:05;;;;;;;15.57;7.75;;;-7.90;99.90;;;;;;5072079;28;20021;-73
2022/12/11 03:29:36;;;;;;;28.05;9.93;;;-7.90;99.90;;;;;;5071685;28;20031;-73
2022/12/11 03:32:09;;;;;;;18.30;7.78;;;-7.90;99.90;;;;;;5071737;28;20031;-74
2022/12/11 03:34:51;;;;;;;18.98;7.65;;;-8.00;99.90;;;;;;5070264;28;20028;-73
2022/12/11 03:37:20;;;;;;;18.40;7.85;;;-8.10;99.90;;;;;;5071421;28;20039;-73
2022/12/11 03:39:50;;;;;;;21.05;6.78;;;-8.10;99.90;;;;;;5071448;28;20017;-74
2022/12/11 03:42:19;;;;;;;24.15;8.57;;;-8.00;99.90;;;;;;5070880;28;20492;-73
2022/12/11 03:44:48;;;;;;;20.30;9.30;;;-7.60;99.90;;;;;;5070007;28;20548;-73
2022/12/11 03:47:17;;;;;;;;;;;-7.50;99.90;;;;;;5070546;28;20037;-73
2022/12/11 03:49:44;;;;;;;29.73;7.55;;;-7.50;99.90;;;;;;5071608;28;20123;-73
2022/12/11 03:52:12;;;;;;;18.25;8.25;;;-7.30;99.90;;;;;;5071333;28;20048;-73
2022/12/11 03:54:40;;;;;;;23.73;8.45;;;-7.10;99.90;;;;;;5071189;28;20029;-73
2022/12/11 03:57:07;;;;;;;23.95;9.40;;;-6.90;99.90;;;;;;5070979;28;20384;-74
2022/12/11 03:59:33;;;;;;;27.05;9.98;;;-6.70;99.90;;;;;;5069703;28;20029;-73
2022/12/11 04:01:58;;;;;;;19.05;9.13;;;-6.60;99.90;;;;;;5071103;28;20035;-74
2022/12/11 04:04:24;;;;;;;22.90;9.75;;;-6.50;99.90;;;;;;5068957;28;20115;-74
2022/12/11 04:06:50;;;;;;;23.00;10.00;;;-6.40;99.90;;;;;;5071109;28;20025;-74
2022/12/11 04:09:16;;;;;;;22.95;10.50;;;-6.40;99.90;;;;;;5070860;28;20047;-74
2022/12/11 04:11:41;;;;;;;18.30;8.93;;;-6.30;99.90;;;;;;5069891;28;20051;-73
2022/12/11 04:16:58;;;;;;;20.80;10.43;;;-6.10;99.90;;;;;;5071020;28;20040;-73
2022/12/11 04:24:39;;;;;;;20.50;8.30;;;-5.80;99.90;;;;;;5070663;28;20437;-74
2022/12/11 04:27:05;;;;;;;25.83;9.90;;;-5.70;99.90;;;;;;5069341;28;20100;-73
2022/12/11 04:29:30;;;;;;;20.48;7.97;;;-5.70;99.90;;;;;;5070889;28;20103;-73
2022/12/11 04:31:56;;;;;;;24.42;9.90;;;-5.60;99.90;;;;;;5069491;28;20056;-74
2022/12/11 04:34:22;;;;;;;17.45;9.90;;;-5.40;99.90;;;;;;5069310;28;20115;-73
2022/12/11 04:36:47;;;;;;;19.13;8.80;;;-5.40;99.90;;;;;;5069190;28;20024;-73
2022/12/11 04:39:13;;;;;;;24.00;7.85;;;-5.30;99.90;;;;;;5070497;28;20032;-74
2022/12/11 04:41:40;;;;;;;22.20;8.77;;;-5.30;99.90;;;;;;5070594;28;20127;-74
2022/12/11 04:44:06;;;;;;;15.02;6.70;;;-5.30;99.90;;;;;;5070371;28;20423;-73
2022/12/11 04:46:32;;;;;;;20.80;6.72;;;-5.30;99.90;;;;;;5070440;28;20026;-74
2022/12/11 04:48:59;;;;;;;21.13;8.15;;;-5.30;99.90;;;;;;5069179;28;20025;-73
2022/12/11 04:51:26;;;;;;;15.07;8.30;;;-5.30;99.90;;;;;;5069391;28;20796;-74
2022/12/11 04:53:51;;;;;;;22.63;7.97;;;-5.30;99.90;;;;;;5070369;28;20143;-74
2022/12/11 04:56:17;;;;;;;23.42;12.20;;;-5.40;99.90;;;;;;5068914;28;20025;-74
2022/12/11 04:58:44;;;;;;;20.95;9.02;;;-5.40;99.90;;;;;;5070283;28;20048;-73
2022/12/11 05:01:18;;;;;;;23.27;8.15;;;-5.30;99.90;;;;;;5068792;28;20161;-73
2022/12/11 05:03:44;;;;;;;23.63;7.45;;;-5.30;99.90;;;;;;5070168;28;20099;-73
2022/12/11 05:06:11;;;;;;;25.10;9.73;;;-5.30;99.90;;;;;;5070449;28;20127;-74
2022/12/11 05:08:39;;;;;;;19.95;9.02;;;-5.40;99.90;;;;;;5069816;28;20162;-74
2022/12/11 05:11:08;;;;;;;22.70;7.68;;;-5.40;99.90;;;;;;5070336;28;20061;-73
2022/12/11 05:13:34;;;;;;;;;;;-5.30;99.90;;;;;;5070225;28;20056;-73
2022/12/11 05:16:03;;;;;;;22.63;7.38;;;-5.50;99.90;;;;;;5069690;28;20280;-73
2022/12/11 05:18:29;;;;;;;25.33;9.07;;;-5.60;99.90;;;;;;5069099;28;20428;-73
2022/12/11 05:21:00;;;;;;;20.42;8.23;;;-5.70;99.90;;;;;;5070102;28;20028;-74
2022/12/11 05:23:26;;;;;;;25.25;11.68;;;-5.80;99.90;;;;;;5070006;28;20584;-73
2022/12/11 05:25:53;;;;;;;21.50;10.13;;;-6.00;99.90;;;;;;5069123;28;20115;-73
2022/12/11 05:28:19;;;;;;;25.38;9.15;;;-6.10;99.90;;;;;;5069983;28;20017;-73
2022/12/11 05:30:45;;;;;;;25.00;11.00;;;-6.00;99.90;;;;;;5070017;28;20090;-74
2022/12/11 05:33:11;;;;;;;20.35;8.40;;;-6.10;99.90;;;;;;5069975;28;20458;-74
2022/12/11 05:35:36;;;;;;;27.17;10.25;;;-6.10;99.90;;;;;;5070192;28;20126;-74
2022/12/11 05:38:02;;;;;;;30.15;13.85;;;-5.90;99.90;;;;;;5069786;28;20386;-74
2022/12/11 05:40:27;;;;;;;31.42;11.73;;;-5.90;99.90;;;;;;5069731;28;20021;-73
2022/12/11 05:42:53;;;;;;;25.15;8.88;;;-5.80;99.90;;;;;;5069438;28;20048;-74
2022/12/11 05:45:19;;;;;;;27.33;10.13;;;-5.70;99.90;;;;;;5069790;28;20444;-74
2022/12/11 05:47:44;;;;;;;25.42;10.85;;;-5.80;99.90;;;;;;5069867;28;20099;-74
2022/12/11 05:50:10;;;;;;;21.38;9.85;;;-5.90;99.90;;;;;;5069707;28;20012;-74
2022/12/11 05:52:36;;;;;;;34.53;11.52;;;-5.90;99.90;;;;;;5068715;28;20389;-73
2022/12/11 05:55:02;;;;;;;20.58;10.07;;;-5.90;99.90;;;;;;5069659;28;20020;-73
2022/12/11 05:57:27;;;;;;;31.25;10.93;;;-5.80;99.90;;;;;;5072276;28;20505;-73
2022/12/11 05:59:53;;;;;;;22.48;8.73;;;-5.80;99.90;;;;;;5071175;28;20060;-73
2022/12/11 06:02:18;;;;;;;26.05;9.88;;;-5.80;99.90;;;;;;5069724;28;20078;-73
2022/12/11 06:04:44;;;;;;;28.60;12.43;;;-5.70;99.90;;;;;;5069955;28;20445;-73
2022/12/11 06:07:10;;;;;;;23.73;12.35;;;-5.70;99.90;;;;;;5068431;28;20035;-74
2022/12/11 06:09:35;;;;;;;29.23;11.43;;;-5.60;99.90;;;;;;5069868;28;20032;-73
2022/12/11 06:12:01;;;;;;;33.97;12.45;;;-5.50;99.90;;;;;;5069512;28;20039;-73
2022/12/11 06:14:26;;;;;;;28.02;10.70;;;-5.40;99.90;;;;;;5069939;28;20032;-73
2022/12/11 06:16:52;;;;;;;21.42;8.75;;;-5.40;99.90;;;;;;5069895;28;20245;-74
2022/12/11 06:19:18;;;;;;;23.02;8.63;;;-5.40;99.90;;;;;;5069736;28;20354;-73
2022/12/11 06:21:44;;;;;;;22.15;9.73;;;-5.30;99.90;;;;;;5069414;28;20102;-74
2022/12/11 06:24:10;;;;;;;22.02;9.63;;;-5.30;99.90;;;;;;5069860;28;20028;-73
2022/12/11 06:26:36;;;;;;;25.65;9.23;;;-5.20;99.90;;;;;;5069608;28;20032;-73
2022/12/11 06:29:02;;;;;;;32.28;11.35;;;-5.20;99.90;;;;;;5073370;28;20021;-74
2022/12/11 06:31:27;;;;;;;25.75;11.57;;;-5.10;99.90;;;;;;5073737;28;20103;-73
2022/12/11 06:33:53;;;;;;;23.35;9.15;;;-5.00;99.90;;;;;;5073524;28;20034;-74
2022/12/11 06:36:21;;;;;;;23.10;9.85;;;-4.90;99.90;;;;;;5072741;28;20093;-73
2022/12/11 06:38:47;;;;;;;32.80;13.43;;;-4.80;99.90;;;;;;5074096;28;20036;-73
2022/12/11 06:41:13;;;;;;;35.25;10.63;;;-4.80;99.90;;;;;;5074199;28;20032;-74
2022/12/11 06:43:41;;;;;;;43.65;14.20;;;-4.70;99.90;;;;;;5073937;28;20095;-73
2022/12/11 06:46:16;;;;;;;27.08;10.30;;;-4.70;99.90;;;;;;5074290;28;20518;-73
2022/12/11 06:48:42;;;;;;;37.85;14.70;;;-4.60;99.90;;;;;;5074786;28;20020;-73
2022/12/11 06:51:11;;;;;;;32.63;13.20;;;-4.60;99.90;;;;;;5074340;28;20099;-74
2022/12/11 06:53:37;;;;;;;28.15;10.80;;;-4.60;99.90;;;;;;5074292;28;20063;-74
2022/12/11 06:56:08;;;;;;;36.00;12.20;;;-4.60;99.90;;;;;;5073827;28;20059;-73
2022/12/11 06:58:35;;;;;;;38.47;14.55;;;-4.50;99.90;;;;;;5072365;28;20436;-73
2022/12/11 07:01:02;;;;;;;31.25;13.50;;;-4.40;99.90;;;;;;5071466;28;20435;-73
2022/12/11 07:03:28;;;;;;;28.55;11.77;;;-4.30;99.90;;;;;;5072951;28;20052;-74
2022/12/11 07:05:58;;;;;;;37.17;13.60;;;-4.20;99.90;;;;;;5071260;28;20063;-73
2022/12/11 07:08:23;;;;;;;40.20;13.25;;;-4.10;99.90;;;;;;5073185;28;20149;-73
2022/12/11 07:10:49;;;;;;;40.50;14.98;;;-4.00;99.90;;;;;;5072942;28;20576;-73
2022/12/11 07:13:14;;;;;;;30.45;12.43;;;-4.10;99.90;;;;;;5071273;28;20024;-74
2022/12/11 07:15:40;;;;;;;32.10;12.23;;;-4.10;99.90;;;;;;5072654;28;20028;-73
2022/12/11 07:18:06;;;;;;;35.83;13.75;;;-4.00;99.90;;;;;;5071222;28;20072;-74
2022/12/11 07:20:31;;;;;;;29.13;10.57;;;-4.00;99.90;;;;;;5072779;28;20048;-73
2022/12/11 07:22:57;;;;;;;37.53;11.40;;;-3.90;99.90;;;;;;5073042;28;20049;-73
2022/12/11 07:25:22;;;;;;;34.85;11.77;;;-3.90;99.90;;;;;;5074345;28;20104;-73
2022/12/11 07:27:48;;;;;;;37.58;14.05;;;-3.90;99.90;;;;;;5071952;28;20060;-74
2022/12/11 07:30:14;;;;;;;28.67;11.18;;;-2.00;99.90;;;;;;5072640;28;20137;-74
2022/12/11 07:32:40;;;;;;;28.17;11.82;;;-3.80;99.90;;;;;;5071744;28;20063;-73
2022/12/11 07:35:06;;;;;;;27.58;12.02;;;-3.90;99.90;;;;;;5070664;28;20025;-74
2022/12/11 07:37:31;;;;;;;35.60;10.57;;;-3.90;99.90;;;;;;5072092;28;20270;-74
2022/12/11 07:39:57;;;;;;;32.08;11.57;;;-4.00;99.90;;;;;;5070918;28;20056;-73
2022/12/11 07:42:22;;;;;;;34.47;12.88;;;-3.90;99.90;;;;;;5072118;28;20025;-74
2022/12/11 07:44:48;;;;;;;27.48;10.48;;;-3.90;99.90;;;;;;5072583;28;20083;-74
2022/12/11 07:47:14;;;;;;;34.10;13.85;;;-3.90;99.90;;;;;;5072148;28;20111;-74
2022/12/11 07:49:39;;;;;;;30.42;13.75;;;-3.90;99.90;;;;;;5059730;28;20477;-74
2022/12/11 07:52:05;;;;;;;35.25;15.48;;;-1.00;99.90;;;;;;5052223;28;20037;-74
2022/12/11 07:54:31;;;;;;;28.05;11.90;;;-3.90;99.90;;;;;;5052367;28;20470;-74
2022/12/11 07:56:56;;;;;;;26.90;10.15;;;-3.80;99.90;;;;;;5051775;28;20033;-74
2022/12/11 07:59:22;;;;;;;34.97;14.00;;;-3.80;99.90;;;;;;5049963;28;20619;-74
2022/12/11 08:01:47;;;;;;;25.17;11.27;;;-3.70;99.90;;;;;;5051772;28;20025;-74
2022/12/11 08:04:14;;;;;;;23.92;11.23;;;-3.60;99.90;;;;;;5051767;28;20025;-74
2022/12/11 08:06:41;;;;;;;35.20;12.45;;;-3.60;99.90;;;;;;5050409;28;20029;-75
2022/12/11 08:09:10;;;;;;;33.85;14.63;;;-3.80;99.90;;;;;;5070278;28;20033;-75
2022/12/11 08:11:35;;;;;;;37.78;14.25;;;-3.90;99.90;;;;;;5086884;28;20058;-75
2022/12/11 08:14:02;;;;;;;31.05;12.68;;;-3.90;99.90;;;;;;5069749;28;20025;-76
2022/12/11 08:16:28;;;;;;;28.75;12.70;;;-3.90;99.90;;;;;;5071531;28;20025;-75
2022/12/11 08:18:54;;;;;;;21.40;10.00;;;-3.70;99.90;;;;;;5071584;28;20060;-76
2022/12/11 08:21:23;;;;;;;37.42;16.42;;;-3.70;99.90;;;;;;5087047;28;20055;-75
2022/12/11 08:23:49;;;;;;;39.30;11.55;;;-3.60;99.90;;;;;;5071267;28;20055;-75
2022/12/11 08:26:26;;;;;;;34.88;12.77;;;-3.60;99.90;;;;;;5072172;28;20437;-75
2022/12/11 08:28:52;;;;;;;28.48;11.55;;;-3.50;99.90;;;;;;5072032;28;20024;-75
2022/12/11 08:31:19;;;;;;;32.78;11.27;;;-3.50;99.90;;;;;;5072081;28;20024;-76
2022/12/11 08:33:45;;;;;;;26.85;11.68;;;-3.50;99.90;;;;;;5070877;28;20420;-75
2022/12/11 08:36:14;;;;;;;39.40;17.63;;;-3.50;99.90;;;;;;5072535;28;20404;-75
2022/12/11 08:38:40;;;;;;;36.63;14.37;;;-3.40;99.90;;;;;;5070133;28;20036;-75
2022/12/11 08:41:21;;;;;;;37.30;14.32;;;-3.20;99.90;;;;;;5071378;28;20263;-75
2022/12/11 08:43:47;;;;;;;27.48;12.05;;;-3.10;99.90;;;;;;5070506;28;20071;-75
2022/12/11 08:46:13;;;;;;;27.98;11.95;;;-3.10;99.90;;;;;;5071339;28;20255;-75
2022/12/11 08:48:40;;;;;;;26.95;11.95;;;-3.00;99.90;;;;;;5070753;28;20028;-74
2022/12/11 08:51:09;;;;;;;31.05;10.93;;;-3.00;99.90;;;;;;5070732;28;20035;-75
2022/12/11 08:53:35;;;;;;;32.10;12.68;;;-2.90;99.90;;;;;;5054343;28;20485;-74
2022/12/11 08:56:09;;;;;;;29.05;10.98;;;-2.80;99.90;;;;;;5049724;28;20033;-75
2022/12/11 08:58:35;;;;;;;25.63;10.60;;;-3.00;99.90;;;;;;5050926;28;20133;-75
2022/12/11 09:01:06;;;;;;;21.45;9.57;;;-2.90;99.90;;;;;;5051134;28;20115;-75
2022/12/11 09:03:32;;;;;;;28.10;10.40;;;-2.80;99.90;;;;;;5050982;28;20493;-75
2022/12/11 09:05:58;;;;;;;30.38;12.40;;;-2.80;99.90;;;;;;5050764;28;20025;-74
2022/12/11 09:08:24;;;;;;;44.65;15.35;;;-2.80;99.90;;;;;;5049120;28;20108;-74
2022/12/11 09:10:50;;;;;;;21.55;10.77;;;-2.70;99.90;;;;;;5050586;28;20094;-75
2022/12/11 09:13:15;;;;;;;18.98;9.63;;;-2.40;99.90;;;;;;5049060;28;20124;-75
2022/12/11 09:15:41;;;;;;;24.20;10.30;;;-2.30;99.90;;;;;;5050880;28;20032;-75
2022/12/11 09:18:07;;;;;;;19.38;8.73;;;-0.30;99.90;;;;;;5049527;28;20033;-75
2022/12/11 09:20:33;;;;;;;17.73;8.10;;;-0.10;99.90;;;;;;5050738;28;20021;-75
2022/12/11 09:22:59;;;;;;;28.52;11.50;;;-1.80;99.90;;;;;;5049770;28;20048;-75
2022/12/11 09:25:25;;;;;;;28.35;9.50;;;-0.60;99.90;;;;;;5048882;28;20021;-75
2022/12/11 09:27:53;;;;;;;25.88;9.43;;;-1.40;99.90;;;;;;5052888;28;20104;-75
2022/12/11 09:30:19;;;;;;;30.98;11.35;;;1.40;99.90;;;;;;5050843;28;20104;-75
2022/12/11 09:32:45;;;;;;;21.30;9.70;;;-1.10;99.90;;;;;;5050496;28;20119;-75
2022/12/11 09:35:10;;;;;;;21.05;8.93;;;-1.00;99.90;;;;;;5052531;28;20466;-76
2022/12/11 09:37:36;;;;;;;32.35;13.18;;;-1.00;99.90;;;;;;5050141;28;20047;-76
2022/12/11 09:40:02;;;;;;;29.58;11.15;;;-1.50;99.90;;;;;;5049079;28;20075;-75
2022/12/11 09:42:48;;;;;;;32.28;11.50;;;-1.70;99.90;;;;;;5053363;28;20124;-75
2022/12/11 09:45:14;;;;;;;48.55;19.15;;;-2.00;99.90;;;;;;5048424;28;20031;-75
2022/12/11 09:47:44;;;;;;;60.78;28.63;;;-2.10;99.90;;;;;;5063337;28;20033;-75
2022/12/11 09:50:09;;;;;;;;;;;-2.00;99.90;;;;;;5068950;28;20392;-75
2022/12/11 09:52:37;;;;;;;29.55;12.55;;;-1.90;99.90;;;;;;5068824;28;19926;-75
2022/12/11 09:55:18;;;;;;;27.42;10.25;;;0.00;99.90;;;;;;5069980;28;20396;-75
2022/12/11 09:57:55;;;;;;;23.38;9.07;;;-1.70;99.90;;;;;;5067569;28;20240;-74
2022/12/11 10:00:46;;;;;;;25.95;10.43;;;-1.70;99.90;;;;;;5065367;28;20024;-74
2022/12/11 10:03:42;;;;;;;25.65;10.40;;;-1.70;99.90;;;;;;5066678;28;20032;-74
2022/12/11 10:06:26;;;;;;;31.67;11.18;;;-1.50;99.90;;;;;;5055931;28;20059;-74
2022/12/11 10:08:52;;;;;;;27.02;9.93;;;-1.30;99.90;;;;;;5053418;28;20032;-74
2022/12/11 10:11:29;;;;;;;32.83;12.65;;;-1.20;99.90;;;;;;5069959;28;20048;-74
2022/12/11 10:14:07;;;;;;;22.65;9.70;;;-1.10;99.90;;;;;;5072584;28;20027;-74
2022/12/11 10:16:42;;;;;;;19.67;7.97;;;-1.10;99.90;;;;;;5074204;28;20025;-73
2022/12/11 10:19:20;;;;;;;22.20;9.45;;;-0.90;99.90;;;;;;5073172;28;20071;-74
2022/12/11 10:21:48;;;;;;;21.45;9.20;;;-1.00;99.90;;;;;;5073698;28;20047;-74
2022/12/11 10:24:37;;;;;;;21.67;8.65;;;-0.90;99.90;;;;;;5075897;28;20226;-74
2022/12/11 10:27:18;;;;;;;20.50;8.27;;;-0.90;99.90;;;;;;5076542;28;20048;-74
2022/12/11 10:29:45;;;;;;;22.00;9.82;;;-0.80;99.90;;;;;;5074536;28;20035;-74
2022/12/11 10:32:28;;;;;;;23.05;8.85;;;-0.70;99.90;;;;;;5074208;28;20056;-75
2022/12/11 10:35:04;;;;;;;35.67;10.43;;;-0.70;99.90;;;;;;5073154;28;20021;-74
2022/12/11 10:37:29;;;;;;;34.20;11.75;;;-0.70;99.90;;;;;;5088305;28;20033;-75
2022/12/11 10:39:55;;;;;;;22.48;7.28;;;0.20;99.90;;;;;;5068955;28;20028;-75
2022/12/11 10:42:22;;;;;;;19.55;9.27;;;-0.10;99.90;;;;;;5051887;28;20103;-76
2022/12/11 10:44:59;;;;;;;20.92;8.88;;;-0.40;99.90;;;;;;5052792;28;20539;-75
2022/12/11 10:47:26;;;;;;;25.00;9.27;;;1.70;99.90;;;;;;5051442;28;20033;-75
2022/12/11 10:49:57;;;;;;;21.10;10.05;;;1.80;99.90;;;;;;5051686;28;20369;-75
2022/12/11 10:52:37;;;;;;;19.52;9.07;;;-0.10;99.90;;;;;;5057513;28;20028;-76
2022/12/11 10:55:14;;;;;;;27.02;9.85;;;-0.10;99.90;;;;;;5057579;28;20051;-75
2022/12/11 10:57:41;;;;;;;20.58;9.57;;;0.00;99.90;;;;;;5051439;28;20066;-75
2022/12/11 11:00:28;;;;;;;18.90;8.68;;;-0.20;99.90;;;;;;5052539;28;20017;-74
2022/12/11 11:02:54;;;;;;;29.65;10.95;;;-2.00;99.90;;;;;;5052329;28;20480;-75
2022/12/11 11:05:33;;;;;;;19.77;8.70;;;1.10;99.90;;;;;;5050927;28;20059;-76
2022/12/11 11:08:20;;;;;;;27.45;10.05;;;0.10;99.90;;;;;;5050604;28;20071;-76
2022/12/11 11:10:53;;;;;;;18.17;8.63;;;1.20;99.90;;;;;;5052058;28;20021;-76
2022/12/11 11:13:21;;;;;;;20.13;7.63;;;0.30;99.90;;;;;;5050392;28;20222;-76
2022/12/11 11:15:47;;;;;;;16.95;7.60;;;1.90;99.90;;;;;;5051927;28;20024;-75
2022/12/11 11:18:24;;;;;;;15.20;6.35;;;2.20;99.90;;;;;;5050589;28;20067;-76
2022/12/11 11:20:50;;;;;;;18.40;8.65;;;2.60;99.90;;;;;;5051485;28;20071;-75
2022/12/11 11:23:20;;;;;;;19.42;8.32;;;0.90;99.90;;;;;;5051903;28;20517;-75
2022/12/11 11:25:55;;;;;;;21.25;8.68;;;1.00;99.90;;;;;;5050719;28;20044;-76
2022/12/11 11:28:34;;;;;;;16.15;7.45;;;0.60;99.90;;;;;;5051998;28;20489;-75
2022/12/11 11:31:05;;;;;;;19.90;7.45;;;1.10;99.90;;;;;;5051867;28;20029;-75
2022/12/11 11:33:33;;;;;;;16.50;6.20;;;0.50;99.90;;;;;;5050431;28;20025;-75
2022/12/11 11:36:05;;;;;;;16.33;7.57;;;1.00;99.90;;;;;;5051468;28;20025;-75
2022/12/11 11:38:42;;;;;;;21.70;8.05;;;0.70;99.90;;;;;;5050070;28;20493;-75
2022/12/11 11:41:18;;;;;;;19.83;7.22;;;1.00;99.90;;;;;;5049918;28;20129;-76
2022/12/11 11:44:07;;;;;;;13.85;6.70;;;2.90;99.90;;;;;;5051088;28;20029;-76
2022/12/11 11:46:40;;;;;;;15.90;6.75;;;1.20;99.90;;;;;;5051231;28;20035;-75
2022/12/11 11:49:44;;;;;;;15.35;7.05;;;1.60;99.90;;;;;;5050079;28;20561;-76
2022/12/11 11:52:10;;;;;;;15.30;7.28;;;1.80;99.90;;;;;;5050363;28;20044;-75
2022/12/11 11:54:38;;;;;;;14.07;6.28;;;1.70;99.90;;;;;;5049714;28;20409;-76
2022/12/11 11:57:22;;;;;;;16.33;7.03;;;2.30;99.90;;;;;;5049574;28;20511;-75
2022/12/11 11:59:53;;;;;;;18.02;7.63;;;1.20;99.90;;;;;;5050062;28;20429;-77
2022/12/11 12:02:19;;;;;;;11.27;5.10;;;0.90;99.90;;;;;;5049748;28;20055;-76
2022/12/11 12:04:48;;;;;;;16.35;7.45;;;1.60;99.90;;;;;;5051135;28;20099;-75
2022/12/11 12:07:33;;;;;;;15.93;7.67;;;1.70;99.90;;;;;;5049772;28;20025;-75
2022/12/11 12:10:15;;;;;;;13.88;6.70;;;0.40;99.90;;;;;;5050672;28;20264;-75
2022/12/11 12:12:44;;;;;;;19.23;7.20;;;0.10;99.90;;;;;;5049563;28;20036;-75
2022/12/11 12:15:28;;;;;;;16.10;8.30;;;1.30;99.90;;;;;;5050454;28;20055;-75
2022/12/11 12:17:57;;;;;;;21.15;7.28;;;-0.70;99.90;;;;;;5051306;28;20299;-76
2022/12/11 12:20:40;;;;;;;14.52;6.47;;;-0.70;99.90;;;;;;5049202;28;20024;-75
2022/12/11 12:23:13;;;;;;;13.80;6.55;;;-0.80;99.90;;;;;;5051017;28;20053;-75
2022/12/11 12:25:38;;;;;;;19.55;6.43;;;-1.00;99.90;;;;;;5050191;28;20024;-74
2022/12/11 12:28:12;;;;;;;12.55;5.43;;;-1.10;99.90;;;;;;5050123;28;20033;-75
2022/12/11 12:31:13;;;;;;;12.52;6.20;;;-1.10;99.90;;;;;;5047902;28;20025;-74
2022/12/11 12:33:49;;;;;;;19.38;7.80;;;-1.00;99.90;;;;;;5048691;28;20464;-75
2022/12/11 12:36:46;;;;;;;15.90;6.78;;;-1.00;99.90;;;;;;5051046;28;20547;-75
2022/12/11 12:39:38;;;;;;;16.25;7.50;;;-1.30;99.90;;;;;;5052369;28;20037;-74
2022/12/11 12:42:15;;;;;;;15.90;7.07;;;-1.70;99.90;;;;;;5042832;28;20036;-75
2022/12/11 12:45:07;;;;;;;21.58;9.73;;;-2.00;99.90;;;;;;5051684;28;20561;-74
2022/12/11 12:47:35;;;;;;;17.63;6.30;;;-2.10;99.90;;;;;;5042581;28;20029;-76
2022/12/11 12:50:03;;;;;;;20.13;10.23;;;-2.20;99.90;;;;;;5051728;28;20250;-74
2022/12/11 12:52:35;;;;;;;18.58;7.32;;;-2.20;99.90;;;;;;5051380;28;20072;-76
2022/12/11 12:55:17;;;;;;;18.55;9.55;;;-2.20;99.90;;;;;;5051147;28;20032;-76
2022/12/11 12:57:48;;;;;;;23.50;9.18;;;-2.10;99.90;;;;;;5051038;28;20033;-73
2022/12/11 13:00:25;;;;;;;21.42;9.00;;;-2.00;99.90;;;;;;5050141;28;20028;-74